Main page
METAR-TAF:

METAR-TAF

Airports :

Kalaleh, Iran

Kalaleh Airport

latitude: 37-22-60N, longitude: 55-27-07E, elevation: 130 m

Current weather observation

The report was made 40 minutes ago, at 03:00 UTC
Calm wind
Temperature 12°C
Humidity 100%
Pressure 1021 hPa
Visibility: 5000 m
Scattered clouds at a height of 2000 ft
Broken clouds at a height of 8000 ft
mist

METAR: OINE 290300Z 00000KT 5000 BR SCT020 BKN080 12/12 Q1021

Time: 08:10 (03:40 UTC)


TAF: missing

Weather observations and forecasts of more than 4000 airports (METAR and TAF reports).

The available stations are represented by yellow and red dots on the map.

Hover mouse over dot to see the name of the station.

Then click to see weather observations and forecasts.

To change the map : click on the green buttons with a black cross to zoom in, on the green button with a dash to zoom out, or on the green arrows for adjacent maps.


METAR-TAF: